createdAt,value
2022-09-03T00:00:50.983Z,12.85
2022-09-03T00:01:51.363Z,12.82
2022-09-03T00:02:51.599Z,12.79
2022-09-03T00:03:51.926Z,12.78
2022-09-03T00:04:52.281Z,12.82
2022-09-03T00:05:52.516Z,12.82
2022-09-03T00:06:52.745Z,12.78
2022-09-03T00:07:53.076Z,12.72
2022-09-03T00:08:53.396Z,12.72
2022-09-03T00:09:53.659Z,12.68
2022-09-03T00:10:53.888Z,12.65
2022-09-03T00:11:54.147Z,12.60
2022-09-03T00:12:54.456Z,12.60
2022-09-03T00:13:54.701Z,12.59
2022-09-03T00:14:54.949Z,12.57
2022-09-03T00:15:55.250Z,12.53
2022-09-03T00:16:55.478Z,12.52
2022-09-03T00:17:55.718Z,12.53
2022-09-03T00:18:55.978Z,12.53
2022-09-03T00:19:56.237Z,12.54
2022-09-03T00:20:56.472Z,12.53
2022-09-03T00:21:56.721Z,12.53
2022-09-03T00:22:56.939Z,12.50
2022-09-03T00:23:57.240Z,12.50
2022-09-03T00:24:57.599Z,12.50
2022-09-03T00:25:57.923Z,12.49
2022-09-03T00:26:58.120Z,12.47
2022-09-03T00:27:58.373Z,12.49
2022-09-03T00:28:58.833Z,12.52
2022-09-03T00:29:58.837Z,12.52
2022-09-03T00:30:59.275Z,12.53
2022-09-03T00:31:59.495Z,12.50
2022-09-03T00:32:59.725Z,12.49
2022-09-03T00:33:59.978Z,12.46
2022-09-03T00:35:00.215Z,12.47
2022-09-03T00:36:00.435Z,12.47
2022-09-03T00:37:00.786Z,12.45
2022-09-03T00:38:01.075Z,12.39
2022-09-03T00:39:01.355Z,12.41
2022-09-03T00:40:01.681Z,12.39
2022-09-03T00:41:01.926Z,12.35
2022-09-03T00:42:02.136Z,12.35
2022-09-03T00:43:02.490Z,12.31
2022-09-03T00:44:02.828Z,12.31
2022-09-03T00:45:03.070Z,12.28
2022-09-03T00:46:03.321Z,12.31
2022-09-03T00:47:03.580Z,12.27
2022-09-03T00:48:03.815Z,12.24
2022-09-03T00:49:04.047Z,12.24
2022-09-03T00:50:04.350Z,12.27
2022-09-03T00:51:04.569Z,12.28
2022-09-03T00:52:04.910Z,12.27
2022-09-03T00:53:05.214Z,12.24
2022-09-03T00:54:05.475Z,12.21
2022-09-03T00:55:05.716Z,12.21
2022-09-03T00:56:05.939Z,12.20
2022-09-03T00:57:06.290Z,12.19
2022-09-03T00:58:06.548Z,12.16
2022-09-03T00:59:06.803Z,12.17
2022-09-03T01:00:07.034Z,12.13
2022-09-03T01:01:07.290Z,12.12
2022-09-03T01:02:07.555Z,12.09
2022-09-03T01:03:07.832Z,12.05
2022-09-03T01:04:08.052Z,12.05
2022-09-03T01:05:08.412Z,12.05
2022-09-03T01:06:08.626Z,12.02
2022-09-03T01:07:09.016Z,12.02
2022-09-03T01:08:09.272Z,12.02
2022-09-03T01:09:09.528Z,12.02
2022-09-03T01:10:09.752Z,12.02
2022-09-03T01:11:10.108Z,12.01
2022-09-03T01:12:10.334Z,11.98
2022-09-03T01:13:10.583Z,11.98
2022-09-03T01:14:10.836Z,11.95
2022-09-03T01:15:11.064Z,11.95
2022-09-03T01:16:11.355Z,11.95
2022-09-03T01:17:12.043Z,11.94
2022-09-03T01:18:12.055Z,11.90
2022-09-03T01:19:12.264Z,11.88
2022-09-03T01:20:12.553Z,11.86
2022-09-03T01:21:12.766Z,11.86
2022-09-03T01:22:13.115Z,11.83
2022-09-03T01:23:13.326Z,11.83
2022-09-03T01:24:13.671Z,11.80
2022-09-03T01:25:14.035Z,11.79
2022-09-03T01:26:14.238Z,11.79
2022-09-03T01:27:14.589Z,11.80
2022-09-03T01:28:14.860Z,11.80
2022-09-03T01:29:15.119Z,11.78
2022-09-03T01:30:15.318Z,11.80
2022-09-03T01:31:15.714Z,11.79
2022-09-03T01:32:15.995Z,11.80
2022-09-03T01:33:16.199Z,11.78
2022-09-03T01:34:16.535Z,11.78
2022-09-03T01:35:16.875Z,11.76
2022-09-03T01:36:17.209Z,11.75
2022-09-03T01:37:17.549Z,11.76
2022-09-03T01:38:17.871Z,11.73
2022-09-03T01:39:18.247Z,11.72
2022-09-03T01:40:18.440Z,11.70
2022-09-03T01:41:18.782Z,11.69
2022-09-03T01:42:20.333Z,11.70
2022-09-03T01:43:19.572Z,11.70
2022-09-03T01:44:19.899Z,11.69
2022-09-03T01:45:20.105Z,11.69
2022-09-03T01:46:20.369Z,11.69
2022-09-03T01:47:20.600Z,11.69
2022-09-03T01:48:20.810Z,11.67
2022-09-03T01:49:21.162Z,11.67
2022-09-03T01:50:21.403Z,11.67
2022-09-03T01:51:21.652Z,11.69
2022-09-03T01:52:21.865Z,11.64
2022-09-03T01:53:22.214Z,11.69
2022-09-03T01:54:22.424Z,11.67
2022-09-03T01:55:22.793Z,11.65
2022-09-03T01:56:23.012Z,11.67
2022-09-03T01:57:35.471Z,11.67
2022-09-03T01:58:24.751Z,11.65
2022-09-03T01:59:23.917Z,11.70
2022-09-03T02:00:24.298Z,11.80
2022-09-03T02:01:24.623Z,11.86
2022-09-03T02:02:25.001Z,11.86
2022-09-03T02:03:25.205Z,11.83
2022-09-03T02:04:25.508Z,11.83
2022-09-03T02:05:25.836Z,11.82
2022-09-03T02:06:26.184Z,11.82
2022-09-03T02:07:26.528Z,11.82
2022-09-03T02:08:26.876Z,11.80
2022-09-03T02:09:30.859Z,11.80
2022-09-03T02:10:28.427Z,11.82
2022-09-03T02:11:27.678Z,11.85
2022-09-03T02:12:28.019Z,11.85
2022-09-03T02:13:28.380Z,11.90
2022-09-03T02:14:28.623Z,11.91
2022-09-03T02:15:28.914Z,11.96
2022-09-03T02:16:29.117Z,11.96
2022-09-03T02:17:29.471Z,11.96
2022-09-03T02:18:29.820Z,11.91
2022-09-03T02:19:30.068Z,11.96
2022-09-03T02:20:30.291Z,11.98
2022-09-03T02:21:30.633Z,11.95
2022-09-03T02:22:30.968Z,11.94
2022-09-03T02:23:31.329Z,11.94
2022-09-03T02:24:31.543Z,11.91
2022-09-03T02:25:31.894Z,11.90
2022-09-03T02:26:32.229Z,11.86
2022-09-03T02:27:32.565Z,11.91
2022-09-03T02:28:32.915Z,12.01
2022-09-03T02:29:33.148Z,12.05
2022-09-03T02:30:33.398Z,12.05
2022-09-03T02:31:33.621Z,12.02
2022-09-03T02:32:34.024Z,12.04
2022-09-03T02:33:34.311Z,12.02
2022-09-03T02:34:34.553Z,12.04
2022-09-03T02:35:34.900Z,12.02
2022-09-03T02:36:35.214Z,12.02
2022-09-03T02:37:35.429Z,12.05
2022-09-03T02:38:35.675Z,12.05
2022-09-03T02:39:39.286Z,12.05
2022-09-03T02:40:36.134Z,12.04
2022-09-03T02:41:36.486Z,12.04
2022-09-03T02:42:36.714Z,12.04
2022-09-03T02:43:37.093Z,12.04
2022-09-03T02:44:37.713Z,12.07
2022-09-03T02:45:37.547Z,12.04
2022-09-03T02:46:37.918Z,12.04
2022-09-03T02:47:38.135Z,12.04
2022-09-03T02:48:38.487Z,12.02
2022-09-03T02:49:38.746Z,12.02
2022-09-03T02:50:38.978Z,12.10
2022-09-03T02:51:39.196Z,12.07
2022-09-03T02:52:39.557Z,12.05
2022-09-03T02:53:39.868Z,12.04
2022-09-03T02:54:40.099Z,11.99
2022-09-03T02:55:40.419Z,11.99
2022-09-03T02:56:40.779Z,11.98
2022-09-03T02:57:41.021Z,12.04
2022-09-03T02:58:41.247Z,12.04
2022-09-03T02:59:41.715Z,12.02
2022-09-03T03:00:41.888Z,12.09
2022-09-03T03:01:42.450Z,12.09
2022-09-03T03:02:42.602Z,12.07
2022-09-03T03:03:42.811Z,12.02
2022-09-03T03:04:43.151Z,11.99
2022-09-03T03:05:43.531Z,11.96
2022-09-03T03:06:43.741Z,11.95
2022-09-03T03:07:44.082Z,11.91
2022-09-03T03:08:44.290Z,11.88
2022-09-03T03:09:44.654Z,11.86
2022-09-03T03:10:44.866Z,11.85
2022-09-03T03:11:45.215Z,11.83
2022-09-03T03:12:45.564Z,11.82
2022-09-03T03:13:45.803Z,11.82
2022-09-03T03:14:46.024Z,11.79
2022-09-03T03:15:46.365Z,11.79
2022-09-03T03:16:46.735Z,11.80
2022-09-03T03:17:46.979Z,11.79
2022-09-03T03:18:47.199Z,11.78
2022-09-03T03:22:29.993Z,11.76
2022-09-03T03:23:28.812Z,11.79
2022-09-03T03:24:29.051Z,11.78
2022-09-03T03:25:29.282Z,11.79
2022-09-03T03:26:29.642Z,11.78
2022-09-03T03:27:29.863Z,11.76
2022-09-03T03:28:30.243Z,11.75
2022-09-03T03:29:30.475Z,11.73
2022-09-03T03:30:30.771Z,11.72
2022-09-03T03:31:31.024Z,11.70
2022-09-03T03:32:31.256Z,11.67
2022-09-03T03:33:31.481Z,11.65
2022-09-03T03:34:31.744Z,11.62
2022-09-03T03:35:31.962Z,11.58
2022-09-03T03:36:32.290Z,11.58
2022-09-03T03:37:32.685Z,11.58
2022-09-03T03:38:32.986Z,11.58
2022-09-03T03:39:33.253Z,11.55
2022-09-03T03:40:33.535Z,11.57
2022-09-03T03:41:33.775Z,11.54
2022-09-03T03:42:34.067Z,11.54
2022-09-03T03:43:34.338Z,11.51
2022-09-03T03:44:34.561Z,11.44
2022-09-03T03:45:34.971Z,11.43
2022-09-03T03:46:35.197Z,11.40
2022-09-03T03:47:35.567Z,11.42
2022-09-03T03:48:35.818Z,11.46
2022-09-03T03:49:36.038Z,11.52
2022-09-03T03:50:36.428Z,11.57
2022-09-03T03:51:36.669Z,11.57
2022-09-03T03:52:36.898Z,11.55
2022-09-03T03:53:37.130Z,11.57
2022-09-03T03:54:37.368Z,11.57
2022-09-03T03:55:37.619Z,11.61
2022-09-03T03:56:37.850Z,11.64
2022-09-03T03:57:38.088Z,11.64
2022-09-03T03:58:38.338Z,11.61
2022-09-03T03:59:38.582Z,11.61
2022-09-03T04:00:38.807Z,11.65
2022-09-03T04:01:39.210Z,11.69
2022-09-03T04:02:39.495Z,11.69
2022-09-03T04:03:39.771Z,11.67
2022-09-03T04:04:40.031Z,11.70
2022-09-03T04:05:46.160Z,11.72
2022-09-03T04:06:41.642Z,11.72
2022-09-03T04:07:41.001Z,11.75
2022-09-03T04:08:41.301Z,11.78
2022-09-03T04:09:41.576Z,11.76
2022-09-03T04:10:41.833Z,11.79
2022-09-03T04:11:42.092Z,11.83
2022-09-03T04:12:42.363Z,11.86
2022-09-03T04:13:42.625Z,11.82
2022-09-03T04:14:42.903Z,11.80
2022-09-03T04:15:43.164Z,11.78
2022-09-03T04:16:43.553Z,11.78
2022-09-03T04:17:43.655Z,11.75
2022-09-03T04:18:43.913Z,11.70
2022-09-03T04:19:44.168Z,11.72
2022-09-03T04:20:44.435Z,11.70
2022-09-03T04:21:44.705Z,11.64
2022-09-03T04:22:45.920Z,11.61
2022-09-03T04:23:45.285Z,11.58
2022-09-03T04:24:45.547Z,11.55
2022-09-03T04:25:45.818Z,11.52
2022-09-03T04:26:46.077Z,11.52
2022-09-03T04:27:46.357Z,11.54
2022-09-03T04:28:46.628Z,11.52
2022-09-03T04:29:46.858Z,11.49
2022-09-03T04:30:49.134Z,11.47
2022-09-03T04:31:47.404Z,11.49
2022-09-03T04:32:47.667Z,11.47
2022-09-03T04:33:47.908Z,11.46
2022-09-03T04:34:48.152Z,11.44
2022-09-03T04:35:48.417Z,11.46
2022-09-03T04:36:52.395Z,11.44
2022-09-03T04:37:48.960Z,11.46
2022-09-03T04:38:49.236Z,11.44
2022-09-03T04:39:49.578Z,11.44
2022-09-03T04:40:49.841Z,11.47
2022-09-03T04:41:50.070Z,11.46
2022-09-03T04:42:50.343Z,11.44
2022-09-03T04:43:51.494Z,11.47
2022-09-03T04:44:50.901Z,11.46
2022-09-03T04:45:51.205Z,11.46
2022-09-03T04:46:51.439Z,11.49
2022-09-03T04:47:51.695Z,11.51
2022-09-03T04:48:51.952Z,11.55
2022-09-03T04:49:52.203Z,11.62
2022-09-03T04:50:52.504Z,11.67
2022-09-03T04:51:52.790Z,11.69
2022-09-03T04:52:53.103Z,11.72
2022-09-03T04:53:53.417Z,11.76
2022-09-03T04:54:53.692Z,11.78
2022-09-03T04:55:53.984Z,11.80
2022-09-03T04:56:54.295Z,11.83
2022-09-03T04:57:54.583Z,11.86
2022-09-03T04:58:54.875Z,11.90
2022-09-03T04:59:55.135Z,11.91
2022-09-03T05:00:55.449Z,11.94
2022-09-03T05:01:55.805Z,11.94
2022-09-03T05:02:55.975Z,11.94
2022-09-03T05:03:56.308Z,11.94
2022-09-03T05:04:56.604Z,11.98
2022-09-03T05:05:56.869Z,12.01
2022-09-03T05:06:57.177Z,12.04
2022-09-03T05:07:57.497Z,12.04
2022-09-03T05:08:57.760Z,12.04
2022-09-03T05:09:58.058Z,12.09
2022-09-03T05:10:58.336Z,12.13
2022-09-03T05:11:58.588Z,12.14
2022-09-03T05:12:58.886Z,12.17
2022-09-03T05:13:59.203Z,12.19
2022-09-03T05:14:59.458Z,12.20
2022-09-03T05:15:59.750Z,12.23
2022-09-03T05:17:00.092Z,12.27
2022-09-03T05:18:00.298Z,12.34
2022-09-03T05:19:00.563Z,12.53
2022-09-03T05:20:00.840Z,12.87
2022-09-03T05:21:01.132Z,13.23
2022-09-03T05:22:01.412Z,13.54
2022-09-03T05:23:01.693Z,13.78
2022-09-03T05:24:02.013Z,13.96
2022-09-03T05:25:02.288Z,14.06
2022-09-03T05:26:02.585Z,14.18
2022-09-03T05:27:02.852Z,14.32
2022-09-03T05:28:03.141Z,14.40
2022-09-03T05:29:03.441Z,14.52
2022-09-03T05:30:03.704Z,14.68
2022-09-03T05:31:03.964Z,14.83
2022-09-03T05:32:04.277Z,15.01
2022-09-03T05:33:04.563Z,15.13
2022-09-03T05:34:04.813Z,15.16
2022-09-03T05:35:05.096Z,15.23
2022-09-03T05:36:05.359Z,15.28
2022-09-03T05:37:05.666Z,15.31
2022-09-03T05:38:05.979Z,15.35
2022-09-03T05:39:06.440Z,15.41
2022-09-03T05:40:06.625Z,15.54
2022-09-03T05:41:07.010Z,15.62
2022-09-03T05:42:07.147Z,15.65
2022-09-03T05:43:08.648Z,15.67
2022-09-03T05:44:07.658Z,15.62
2022-09-03T05:45:07.931Z,15.56
2022-09-03T05:46:08.251Z,15.53
2022-09-03T05:47:08.532Z,15.56
2022-09-03T05:48:08.829Z,15.64
2022-09-03T05:49:09.082Z,15.59
2022-09-03T05:50:09.402Z,15.56
2022-09-03T05:51:09.714Z,15.57
2022-09-03T05:52:10.044Z,15.41
2022-09-03T05:53:10.320Z,15.14
2022-09-03T05:54:10.707Z,14.98
2022-09-03T05:55:13.399Z,14.84
2022-09-03T05:56:11.097Z,14.68
2022-09-03T05:57:11.372Z,14.75
2022-09-03T05:58:11.733Z,14.65
2022-09-03T05:59:11.856Z,14.57
2022-09-03T06:00:12.136Z,14.50
2022-09-03T06:01:12.417Z,14.42
2022-09-03T06:02:12.762Z,14.35
2022-09-03T06:03:13.073Z,14.32
2022-09-03T06:04:13.286Z,14.32
2022-09-03T06:05:13.566Z,14.32
2022-09-03T06:06:13.844Z,14.33
2022-09-03T06:07:14.217Z,14.36
2022-09-03T06:08:14.398Z,14.40
2022-09-03T06:09:14.679Z,14.45
2022-09-03T06:10:14.939Z,14.57
2022-09-03T06:11:15.252Z,14.70
2022-09-03T06:12:15.539Z,14.83
2022-09-03T06:13:16.545Z,14.89
2022-09-03T06:14:16.903Z,14.94
2022-09-03T06:15:16.389Z,15.02
2022-09-03T06:16:16.745Z,15.09
2022-09-03T06:17:16.905Z,15.10
2022-09-03T06:18:17.195Z,15.17
2022-09-03T06:19:17.531Z,15.20
2022-09-03T06:20:17.819Z,15.20
2022-09-03T06:21:18.092Z,15.20
2022-09-03T06:22:18.431Z,15.19
2022-09-03T06:23:18.764Z,15.19
2022-09-03T06:24:19.062Z,15.20
2022-09-03T06:25:19.404Z,15.23
2022-09-03T06:26:19.709Z,15.27
2022-09-03T06:27:19.991Z,15.28
2022-09-03T06:28:20.322Z,15.28
2022-09-03T06:29:20.545Z,15.31
2022-09-03T06:30:21.206Z,15.32
2022-09-03T06:31:21.227Z,15.34
2022-09-03T06:32:21.525Z,15.34
2022-09-03T06:33:21.851Z,15.34
2022-09-03T06:34:22.096Z,15.35
2022-09-03T06:35:22.376Z,15.39
2022-09-03T06:36:22.661Z,15.46
2022-09-03T06:37:22.981Z,15.51
2022-09-03T06:38:23.354Z,15.53
2022-09-03T06:39:23.569Z,15.56
2022-09-03T06:40:23.737Z,15.59
2022-09-03T06:41:24.030Z,15.57
2022-09-03T06:42:24.339Z,15.53
2022-09-03T06:43:24.632Z,15.50
2022-09-03T06:44:24.880Z,15.46
2022-09-03T06:45:25.200Z,15.46
2022-09-03T06:46:25.461Z,15.43
2022-09-03T06:47:25.741Z,15.36
2022-09-03T06:48:26.068Z,15.32
2022-09-03T06:49:26.394Z,15.31
2022-09-03T06:50:27.430Z,15.32
2022-09-03T06:51:26.884Z,15.27
2022-09-03T06:52:27.156Z,15.25
2022-09-03T06:53:32.021Z,15.23
2022-09-03T06:54:27.685Z,15.21
2022-09-03T06:55:27.951Z,15.17
2022-09-03T06:56:28.239Z,15.16
2022-09-03T06:57:28.530Z,15.14
2022-09-03T06:58:28.815Z,15.14
2022-09-03T06:59:29.066Z,15.14
2022-09-03T07:00:30.783Z,15.14
2022-09-03T07:01:29.785Z,15.13
2022-09-03T07:02:29.969Z,15.14
2022-09-03T07:03:30.238Z,15.13
2022-09-03T07:04:30.541Z,15.14
2022-09-03T07:05:30.789Z,15.14
2022-09-03T07:06:31.061Z,15.13
2022-09-03T07:07:31.374Z,15.11
2022-09-03T07:08:31.677Z,15.14
2022-09-03T07:09:31.973Z,15.13
2022-09-03T07:10:32.253Z,15.16
2022-09-03T07:11:32.532Z,15.16
2022-09-03T07:12:32.820Z,15.16
2022-09-03T07:13:33.092Z,15.14
2022-09-03T07:14:33.402Z,15.14
2022-09-03T07:15:33.752Z,15.14
2022-09-03T07:16:33.960Z,15.14
2022-09-03T07:17:34.263Z,15.14
2022-09-03T07:18:34.572Z,15.16
2022-09-03T07:19:34.836Z,15.19
2022-09-03T07:20:35.149Z,15.21
2022-09-03T07:21:35.433Z,15.25
2022-09-03T07:22:35.715Z,15.31
2022-09-03T07:23:36.024Z,15.35
2022-09-03T07:24:36.286Z,15.43
2022-09-03T07:25:36.555Z,15.49
2022-09-03T07:26:36.827Z,15.53
2022-09-03T07:27:37.106Z,15.59
2022-09-03T07:28:37.378Z,15.60
2022-09-03T07:29:37.660Z,15.64
2022-09-03T07:30:37.926Z,15.69
2022-09-03T07:31:38.269Z,15.72
2022-09-03T07:32:38.418Z,15.78
2022-09-03T07:33:38.719Z,15.83
2022-09-03T07:34:38.967Z,15.87
2022-09-03T07:35:39.233Z,15.89
2022-09-03T07:36:39.469Z,15.92
2022-09-03T07:37:39.789Z,15.97
2022-09-03T07:38:40.060Z,16.01
2022-09-03T07:39:40.562Z,16.02
2022-09-03T07:40:40.650Z,16.08
2022-09-03T07:41:40.936Z,16.11
2022-09-03T07:42:41.287Z,16.17
2022-09-03T07:43:41.658Z,16.17
2022-09-03T07:44:41.803Z,16.23
2022-09-03T07:45:42.053Z,16.28
2022-09-03T07:46:42.346Z,16.34
2022-09-03T07:47:42.603Z,16.38
2022-09-03T07:48:42.844Z,16.41
2022-09-03T07:49:43.153Z,16.39
2022-09-03T07:50:43.444Z,16.43
2022-09-03T07:51:43.736Z,16.46
2022-09-03T07:52:44.004Z,16.48
2022-09-03T07:53:44.286Z,16.48
2022-09-03T07:54:44.537Z,16.49
2022-09-03T07:55:44.774Z,16.50
2022-09-03T07:56:45.028Z,16.52
2022-09-03T07:57:45.323Z,16.52
2022-09-03T07:58:45.619Z,16.53
2022-09-03T07:59:45.860Z,16.57
2022-09-03T08:00:46.190Z,16.60
2022-09-03T08:01:46.417Z,16.60
2022-09-03T08:02:46.871Z,16.58
2022-09-03T08:03:47.011Z,16.57
2022-09-03T08:04:47.292Z,16.53
2022-09-03T08:05:47.594Z,16.57
2022-09-03T08:06:47.913Z,16.56
2022-09-03T08:07:48.432Z,16.50
2022-09-03T08:08:48.487Z,16.48
2022-09-03T08:09:48.792Z,16.46
2022-09-03T08:10:49.112Z,16.48
2022-09-03T08:11:49.402Z,16.46
2022-09-03T08:12:49.668Z,16.45
2022-09-03T08:13:49.974Z,16.48
2022-09-03T08:14:50.250Z,16.56
2022-09-03T08:15:50.541Z,16.60
2022-09-03T08:16:50.798Z,16.64
2022-09-03T08:17:51.072Z,16.66
2022-09-03T08:18:51.363Z,16.70
2022-09-03T08:19:51.679Z,16.71
2022-09-03T08:20:51.918Z,16.73
2022-09-03T08:21:52.197Z,16.71
2022-09-03T08:22:52.457Z,16.76
2022-09-03T08:23:52.735Z,16.79
2022-09-03T08:24:52.998Z,16.83
2022-09-03T08:25:53.309Z,16.83
2022-09-03T08:26:53.617Z,16.88
2022-09-03T08:27:53.973Z,16.91
2022-09-03T08:28:54.122Z,16.96
2022-09-03T08:29:54.403Z,16.98
2022-09-03T08:30:54.691Z,17.00
2022-09-03T08:31:55.037Z,17.03
2022-09-03T08:32:55.248Z,17.06
2022-09-03T08:33:55.548Z,17.08
2022-09-03T08:34:55.887Z,17.06
2022-09-03T08:35:56.139Z,17.03
2022-09-03T08:36:56.427Z,17.07
2022-09-03T08:37:57.070Z,17.11
2022-09-03T08:38:56.935Z,17.16
2022-09-03T08:39:57.261Z,17.16
2022-09-03T08:40:57.602Z,17.18
2022-09-03T08:41:57.672Z,17.19
2022-09-03T08:42:57.983Z,17.16
2022-09-03T08:43:58.223Z,17.14
2022-09-03T08:44:59.565Z,17.12
2022-09-03T08:45:58.896Z,17.15
2022-09-03T08:46:59.165Z,17.18
2022-09-03T08:47:59.478Z,17.21
2022-09-03T08:48:59.781Z,17.25
2022-09-03T08:50:00.041Z,17.33
2022-09-03T08:51:00.597Z,17.38
2022-09-03T08:52:00.827Z,17.38
2022-09-03T08:53:00.955Z,17.46
2022-09-03T08:54:01.249Z,17.54
2022-09-03T08:55:01.480Z,17.58
2022-09-03T08:56:01.770Z,17.63
2022-09-03T08:57:02.077Z,17.66
2022-09-03T08:58:02.332Z,17.68
2022-09-03T08:59:02.570Z,17.74
2022-09-03T09:00:02.831Z,17.77
2022-09-03T09:01:03.155Z,17.77
2022-09-03T09:02:03.514Z,17.81
2022-09-03T09:03:03.694Z,17.84
2022-09-03T09:04:03.903Z,17.86
2022-09-03T09:05:06.060Z,17.87
2022-09-03T09:06:04.395Z,17.90
2022-09-03T09:07:04.667Z,17.93
2022-09-03T09:08:04.924Z,17.95
2022-09-03T09:09:05.184Z,17.96
2022-09-03T09:10:05.445Z,17.95
2022-09-03T09:11:05.693Z,17.96
2022-09-03T09:12:06.355Z,17.99
2022-09-03T09:13:06.327Z,17.95
2022-09-03T09:14:06.509Z,17.95
2022-09-03T09:15:17.776Z,17.93
2022-09-03T09:16:07.212Z,17.93
2022-09-03T09:17:07.554Z,17.92
2022-09-03T09:18:07.520Z,17.92
2022-09-03T09:19:07.927Z,17.93
2022-09-03T09:20:08.621Z,17.96
2022-09-03T09:21:08.710Z,17.99
2022-09-03T09:22:08.622Z,18.02
2022-09-03T09:23:09.343Z,18.05
2022-09-03T09:24:09.121Z,18.10
2022-09-03T09:25:09.884Z,18.11
2022-09-03T09:26:09.662Z,18.12
2022-09-03T09:27:12.901Z,18.17
2022-09-03T09:28:11.250Z,18.21
2022-09-03T09:29:10.467Z,18.25
2022-09-03T09:30:10.960Z,18.23
2022-09-03T09:31:11.465Z,18.25
2022-09-03T09:32:11.926Z,18.25
2022-09-03T09:33:11.651Z,18.25
2022-09-03T09:34:11.945Z,18.21
2022-09-03T09:35:12.230Z,18.21
2022-09-03T09:36:12.558Z,18.20
2022-09-03T09:37:12.910Z,18.21
2022-09-03T09:38:13.136Z,18.25
2022-09-03T09:39:13.628Z,18.26
2022-09-03T09:40:13.758Z,18.23
2022-09-03T09:41:14.029Z,18.20
2022-09-03T09:42:14.320Z,18.18
2022-09-03T09:43:14.601Z,18.20
2022-09-03T09:44:14.847Z,18.21
2022-09-03T09:45:15.209Z,18.21
2022-09-03T09:46:15.637Z,18.25
2022-09-03T09:47:15.868Z,18.26
2022-09-03T09:48:16.089Z,18.27
2022-09-03T09:49:16.445Z,18.29
2022-09-03T09:50:24.985Z,18.32
2022-09-03T09:51:18.106Z,18.36
2022-09-03T09:52:18.244Z,18.36
2022-09-03T09:53:17.545Z,18.41
2022-09-03T09:54:17.755Z,18.44
2022-09-03T09:55:18.037Z,18.50
2022-09-03T09:56:18.587Z,18.54
2022-09-03T09:57:19.144Z,18.57
2022-09-03T09:58:18.947Z,18.60
2022-09-03T09:59:19.198Z,18.62
2022-09-03T10:00:19.479Z,18.62
2022-09-03T10:01:19.841Z,18.63
2022-09-03T10:02:21.963Z,18.62
2022-09-03T10:03:20.261Z,18.69
2022-09-03T10:04:20.399Z,18.70
2022-09-03T10:05:20.649Z,18.73
2022-09-03T10:06:20.909Z,18.76
2022-09-03T10:07:21.157Z,18.78
2022-09-03T10:08:21.403Z,18.80
2022-09-03T10:09:21.641Z,18.81
2022-09-03T10:10:22.969Z,18.82
2022-09-03T10:11:22.211Z,18.85
2022-09-03T10:12:22.465Z,18.91
2022-09-03T10:13:22.704Z,18.92
2022-09-03T10:14:22.954Z,18.95
2022-09-03T10:15:23.225Z,18.99
2022-09-03T10:16:23.501Z,19.04
2022-09-03T10:17:31.830Z,19.00
2022-09-03T10:18:26.176Z,18.99
2022-09-03T10:19:24.305Z,19.02
2022-09-03T10:20:24.683Z,19.07
2022-09-03T10:21:24.948Z,19.07
2022-09-03T10:22:25.185Z,19.06
2022-09-03T10:23:25.468Z,19.06
2022-09-03T10:24:25.728Z,19.08
2022-09-03T10:25:25.986Z,19.08
2022-09-03T10:26:26.239Z,19.10
2022-09-03T10:27:26.527Z,19.10
2022-09-03T10:28:27.028Z,19.13
2022-09-03T10:29:26.979Z,19.16
2022-09-03T10:30:27.250Z,19.18
2022-09-03T10:31:27.525Z,19.16
2022-09-03T10:32:33.976Z,19.13
2022-09-03T10:33:29.103Z,19.10
2022-09-03T10:34:28.400Z,19.11
2022-09-03T10:35:28.643Z,19.13
2022-09-03T10:36:29.062Z,19.13
2022-09-03T10:37:29.284Z,19.16
2022-09-03T10:38:29.449Z,19.21
2022-09-03T10:39:29.799Z,19.25
2022-09-03T10:40:29.969Z,19.29
2022-09-03T10:41:30.366Z,19.31
2022-09-03T10:42:30.527Z,19.31
2022-09-03T10:43:30.818Z,19.32
2022-09-03T10:44:31.108Z,19.29
2022-09-03T10:45:31.566Z,19.36
2022-09-03T10:46:32.819Z,19.41
2022-09-03T10:47:32.148Z,19.48
2022-09-03T10:48:32.514Z,19.54
2022-09-03T10:49:32.621Z,19.51
2022-09-03T10:50:32.801Z,19.50
2022-09-03T10:51:33.199Z,19.48
2022-09-03T10:52:33.458Z,19.47
2022-09-03T10:53:33.891Z,19.51
2022-09-03T10:54:33.985Z,19.59
2022-09-03T10:55:34.142Z,19.66
2022-09-03T10:56:34.415Z,19.69
2022-09-03T10:57:34.714Z,19.71
2022-09-03T10:58:35.012Z,19.71
2022-09-03T10:59:35.329Z,19.66
2022-09-03T11:00:35.689Z,19.65
2022-09-03T11:01:36.367Z,19.66
2022-09-03T11:02:36.299Z,19.73
2022-09-03T11:03:36.576Z,19.73
2022-09-03T11:04:37.972Z,19.68
2022-09-03T11:05:37.079Z,19.69
2022-09-03T11:06:37.509Z,19.69
2022-09-03T11:07:37.519Z,19.66
2022-09-03T11:08:37.817Z,19.73
2022-09-03T11:09:38.118Z,19.78
2022-09-03T11:10:38.669Z,19.88
2022-09-03T11:11:39.049Z,19.95
2022-09-03T11:12:39.701Z,19.98
2022-09-03T11:13:39.549Z,19.98
2022-09-03T11:14:39.729Z,19.96
2022-09-03T11:15:41.032Z,20.01
2022-09-03T11:16:40.103Z,20.08
2022-09-03T11:17:40.683Z,20.11
2022-09-03T11:18:40.694Z,20.13
2022-09-03T11:19:40.846Z,20.10
2022-09-03T11:20:41.067Z,20.03
2022-09-03T11:21:41.469Z,19.98
2022-09-03T11:22:41.724Z,19.95
2022-09-03T11:23:42.041Z,19.94
2022-09-03T11:24:42.615Z,19.91
2022-09-03T11:25:42.415Z,19.88
2022-09-03T11:26:42.818Z,19.91
2022-09-03T11:27:43.112Z,19.87
2022-09-03T11:28:43.199Z,19.86
2022-09-03T11:29:43.495Z,19.84
2022-09-03T11:30:43.924Z,19.86
2022-09-03T11:31:44.119Z,19.95
2022-09-03T11:32:44.637Z,19.99
2022-09-03T11:33:44.700Z,20.02
2022-09-03T11:34:45.222Z,20.06
2022-09-03T11:35:45.248Z,20.08
2022-09-03T11:36:48.039Z,20.05
2022-09-03T11:37:45.773Z,20.01
2022-09-03T11:38:46.059Z,19.98
2022-09-03T11:39:46.795Z,20.01
2022-09-03T11:40:46.924Z,20.01
2022-09-03T11:41:47.331Z,19.99
2022-09-03T11:42:47.305Z,19.99
2022-09-03T11:43:47.451Z,19.98
2022-09-03T11:44:51.626Z,20.02
2022-09-03T11:45:47.997Z,20.01
2022-09-03T11:46:48.215Z,19.99
2022-09-03T11:47:48.454Z,20.01
2022-09-03T11:48:48.744Z,20.03
2022-09-03T11:49:49.005Z,20.08
2022-09-03T11:50:49.326Z,20.13
2022-09-03T11:51:49.516Z,20.21
2022-09-03T11:52:49.767Z,20.23
2022-09-03T11:53:50.089Z,20.31
2022-09-03T11:54:50.372Z,20.39
2022-09-03T11:55:50.718Z,20.41
2022-09-03T11:56:50.985Z,20.50
2022-09-03T11:57:52.050Z,20.52
2022-09-03T11:58:51.491Z,20.57
2022-09-03T11:59:51.777Z,20.62
2022-09-03T12:00:52.100Z,20.69
2022-09-03T12:01:52.351Z,20.72
2022-09-03T12:02:58.150Z,20.80
2022-09-03T12:03:53.841Z,20.84
2022-09-03T12:04:53.316Z,20.85
2022-09-03T12:05:54.167Z,20.89
2022-09-03T12:06:53.824Z,20.95
2022-09-03T12:07:54.136Z,20.94
2022-09-03T12:08:54.403Z,20.88
2022-09-03T12:09:54.676Z,20.77
2022-09-03T12:10:54.926Z,20.67
2022-09-03T12:11:55.237Z,20.58
2022-09-03T12:12:55.749Z,20.48
2022-09-03T12:13:55.871Z,20.41
2022-09-03T12:14:56.027Z,20.39
2022-09-03T12:15:56.441Z,20.33
2022-09-03T12:16:56.709Z,20.26
2022-09-03T12:17:57.000Z,20.18
2022-09-03T12:18:57.121Z,20.17
2022-09-03T12:19:57.269Z,20.21
2022-09-03T12:20:57.571Z,20.23
2022-09-03T12:21:57.810Z,20.24
2022-09-03T12:22:58.133Z,20.31
2022-09-03T12:23:58.644Z,20.35
2022-09-03T12:24:58.677Z,20.42
2022-09-03T12:25:58.943Z,20.51
2022-09-03T12:26:59.192Z,20.58
2022-09-03T12:27:59.464Z,20.70
2022-09-03T12:28:59.726Z,20.73
2022-09-03T12:30:00.192Z,20.74
2022-09-03T12:31:00.407Z,20.74
2022-09-03T12:32:00.673Z,20.74
2022-09-03T12:33:00.900Z,20.72
2022-09-03T12:34:01.147Z,20.70
2022-09-03T12:35:01.395Z,20.62
2022-09-03T12:36:01.847Z,20.54
2022-09-03T12:37:02.064Z,20.48
2022-09-03T12:38:04.571Z,20.41
2022-09-03T12:39:18.210Z,20.33
2022-09-03T12:40:05.803Z,20.28
2022-09-03T12:42:05.120Z,20.18
2022-09-03T12:44:04.910Z,20.08
2022-09-03T12:45:04.130Z,20.02
2022-09-03T12:46:11.886Z,20.01
2022-09-03T12:48:06.668Z,20.01
2022-09-03T12:50:06.631Z,20.11
2022-09-03T12:52:07.234Z,20.20
2022-09-03T12:53:06.447Z,20.24
2022-09-03T12:54:06.716Z,20.29
2022-09-03T12:55:06.976Z,20.35
2022-09-03T12:56:07.285Z,20.42
2022-09-03T12:57:08.618Z,20.47
2022-09-03T12:58:11.514Z,20.51
2022-09-03T12:59:09.288Z,20.52
2022-09-03T13:00:08.688Z,20.57
2022-09-03T13:01:09.106Z,20.62
2022-09-03T13:02:09.408Z,20.70
2022-09-03T13:03:09.828Z,20.67
2022-09-03T13:04:10.027Z,20.69